Terminal Aerodrome Forecast
Issued by NWS Upton, NY

Home | Current Version | Previous Version | Text Only | Print | Product List | Glossary On
Versions: 1 2 3 4 5 6 7 8 9 10 11 12 13 14 15 16 17 18 19 20 21 22 23 24 25 26 27 28
890
FTUS41 KOKX 010530
TAFISP
TAF
KISP 010530Z 0106/0206 VRB04KT P6SM BKN090
     FM011200 12008KT 6SM -SHRA OVC060
     FM011700 12010KT 4SM -RA OVC040
     FM011900 11011KT 2SM -RA BR OVC012
     FM012200 09009KT 2SM -SHRA BR OVC006
     FM020400 06005KT 2SM -SHRADZ BR OVC003=

USA.gov is the U.S. government's official web portal to all federal, state and local government web resources and services.